createdAt,value
2019-05-15T00:01:20.362Z,102787.20
2019-05-15T00:03:49.846Z,102783.27
2019-05-15T00:06:19.314Z,102780.98
2019-05-15T00:08:48.823Z,102778.76
2019-05-15T00:11:19.221Z,102788.18
2019-05-15T00:13:49.156Z,102786.83
2019-05-15T00:16:18.747Z,102781.92
2019-05-15T00:18:48.419Z,102786.83
2019-05-15T00:21:18.178Z,102785.48
2019-05-15T00:23:49.554Z,102788.18
2019-05-15T00:26:18.965Z,102780.67
2019-05-15T00:28:48.530Z,102779.39
2019-05-15T00:31:18.650Z,102784.30
2019-05-15T00:33:48.426Z,102782.95
2019-05-15T00:36:19.181Z,102777.58
2019-05-15T00:38:48.869Z,102772.29
2019-05-15T00:41:21.444Z,102778.52
2019-05-15T00:43:50.973Z,102774.98
2019-05-15T00:46:20.566Z,102775.83
2019-05-15T00:48:49.975Z,102771.42
2019-05-15T00:51:19.823Z,102770.95
2019-05-15T00:53:49.429Z,102771.78
2019-05-15T00:56:19.429Z,102772.19
2019-05-15T00:58:49.194Z,102773.07
2019-05-15T01:01:19.351Z,102771.25
2019-05-15T01:03:49.433Z,102771.63
2019-05-15T01:06:19.325Z,102769.80
2019-05-15T01:08:48.939Z,102770.69
2019-05-15T01:11:19.347Z,102765.67
2019-05-15T01:13:48.883Z,102762.44
2019-05-15T01:16:18.741Z,102761.09
2019-05-15T01:18:49.106Z,102769.47
2019-05-15T01:21:19.016Z,102766.21
2019-05-15T01:23:48.591Z,102769.98
2019-05-15T01:26:18.867Z,102764.43
2019-05-15T01:28:49.627Z,102766.95
2019-05-15T01:31:19.307Z,102760.53
2019-05-15T01:33:48.737Z,102757.73
2019-05-15T01:36:19.319Z,102760.83
2019-05-15T01:38:49.053Z,102764.30
2019-05-15T01:41:19.023Z,102762.48
2019-05-15T01:43:49.123Z,102761.44
2019-05-15T01:46:19.179Z,102759.52
2019-05-15T01:48:49.360Z,102761.63
2019-05-15T01:51:19.276Z,102759.75
2019-05-15T01:53:48.744Z,102756.48
2019-05-15T01:56:18.759Z,102756.88
2019-05-15T01:58:49.041Z,102748.13
2019-05-15T02:01:19.192Z,102741.83
2019-05-15T02:03:49.412Z,102753.05
2019-05-15T02:06:19.218Z,102745.88
2019-05-15T02:08:49.699Z,102737.78
2019-05-15T02:11:19.393Z,102741.36
2019-05-15T02:13:48.875Z,102737.31
2019-05-15T02:16:19.189Z,102736.44
2019-05-15T02:18:49.014Z,102732.84
2019-05-15T02:21:18.675Z,102726.67
2019-05-15T02:23:48.323Z,102730.25
2019-05-15T02:26:18.868Z,102726.27
2019-05-15T02:28:48.934Z,102722.70
2019-05-15T02:31:19.794Z,102724.05
2019-05-15T02:33:50.037Z,102726.20
2019-05-15T02:36:20.811Z,102725.33
2019-05-15T02:38:50.665Z,102723.52
2019-05-15T02:41:20.485Z,102725.70
2019-05-15T02:43:50.326Z,102726.03
2019-05-15T02:46:20.054Z,102727.68
2019-05-15T02:48:49.541Z,102726.33
2019-05-15T02:51:19.509Z,102724.44
2019-05-15T02:53:50.094Z,102731.95
2019-05-15T02:56:20.589Z,102734.17
2019-05-15T02:58:50.440Z,102737.73
2019-05-15T03:01:19.871Z,102736.77
2019-05-15T03:03:50.132Z,102742.15
2019-05-15T03:06:19.765Z,102742.08
2019-05-15T03:08:49.732Z,102740.62
2019-05-15T03:11:19.436Z,102742.37
2019-05-15T03:13:50.463Z,102738.70
2019-05-15T03:16:20.356Z,102750.25
2019-05-15T03:18:50.703Z,102742.10
2019-05-15T03:21:23.682Z,102747.21
2019-05-15T03:23:53.134Z,102745.69
2019-05-15T03:26:22.746Z,102745.81
2019-05-15T03:28:52.349Z,102745.93
2019-05-15T03:31:40.785Z,102750.94
2019-05-15T03:33:54.677Z,102746.06
2019-05-15T03:36:24.847Z,102749.17
2019-05-15T03:38:54.445Z,102747.42
2019-05-15T03:41:24.283Z,102747.06
2019-05-15T03:43:59.477Z,102741.81
2019-05-15T03:46:29.151Z,102746.34
2019-05-15T03:49:00.404Z,102748.37
2019-05-15T03:51:30.294Z,102750.78
2019-05-15T03:54:00.554Z,102751.77
2019-05-15T03:56:30.185Z,102751.39
2019-05-15T03:58:59.911Z,102752.84
2019-05-15T04:01:37.972Z,102751.49
2019-05-15T04:04:00.683Z,102749.37
2019-05-15T04:06:30.213Z,102753.52
2019-05-15T04:08:59.979Z,102754.20
2019-05-15T04:11:29.781Z,102746.39
2019-05-15T04:13:59.600Z,102745.33
2019-05-15T04:16:29.711Z,102748.80
2019-05-15T04:18:59.569Z,102743.76
2019-05-15T04:21:30.396Z,102744.59
2019-05-15T04:24:00.327Z,102745.34
2019-05-15T04:26:31.832Z,102747.94
2019-05-15T04:29:01.365Z,102745.52
2019-05-15T04:31:49.798Z,102745.25
2019-05-15T04:34:02.163Z,102747.65
2019-05-15T04:36:31.694Z,102746.86
2019-05-15T04:39:01.198Z,102744.73
2019-05-15T04:41:30.759Z,102753.88
2019-05-15T04:44:00.311Z,102747.33
2019-05-15T04:46:30.137Z,102746.26
2019-05-15T04:48:59.820Z,102745.19
2019-05-15T04:51:30.428Z,102748.66
2019-05-15T04:54:00.039Z,102750.40
2019-05-15T04:56:29.571Z,102747.58
2019-05-15T04:58:59.996Z,102754.73
2019-05-15T05:01:29.619Z,102758.78
2019-05-15T05:03:59.187Z,102759.63
2019-05-15T05:06:29.520Z,102764.07
2019-05-15T05:08:59.664Z,102763.95
2019-05-15T05:11:29.732Z,102764.75
2019-05-15T05:13:59.352Z,102764.64
2019-05-15T05:16:29.551Z,102771.31
2019-05-15T05:18:59.550Z,102768.09
2019-05-15T05:21:29.056Z,102768.97
2019-05-15T05:23:58.674Z,102771.67
2019-05-15T05:26:29.328Z,102771.67
2019-05-15T05:29:01.471Z,102776.85
2019-05-15T05:31:30.567Z,102766.63
2019-05-15T05:34:00.009Z,102778.91
2019-05-15T05:36:29.567Z,102779.86
2019-05-15T05:38:59.008Z,102783.52
2019-05-15T05:41:28.428Z,102778.70
2019-05-15T05:43:58.680Z,102778.82
2019-05-15T05:46:28.422Z,102779.30
2019-05-15T05:48:58.274Z,102782.13
2019-05-15T05:51:28.247Z,102786.25
2019-05-15T05:53:59.015Z,102790.42
2019-05-15T05:56:28.833Z,102788.78
2019-05-15T05:58:58.782Z,102791.09
2019-05-15T06:01:28.426Z,102800.66
2019-05-15T06:03:58.402Z,102805.08
2019-05-15T06:06:29.284Z,102793.11
2019-05-15T06:08:58.909Z,102798.52
2019-05-15T06:11:28.368Z,102795.05
2019-05-15T06:13:58.400Z,102800.45
2019-05-15T06:16:28.418Z,102804.14
2019-05-15T06:18:58.658Z,102802.80
2019-05-15T06:21:28.589Z,102798.74
2019-05-15T06:24:04.687Z,102804.51
2019-05-15T06:26:29.470Z,102807.13
2019-05-15T06:28:58.960Z,102812.53
2019-05-15T06:31:28.897Z,102807.97
2019-05-15T06:33:58.394Z,102815.52
2019-05-15T06:36:28.815Z,102813.18
2019-05-15T06:38:59.021Z,102813.58
2019-05-15T06:41:28.811Z,102810.88
2019-05-15T06:43:58.859Z,102811.75
2019-05-15T06:46:28.728Z,102815.30
2019-05-15T06:48:58.295Z,102818.39
2019-05-15T06:51:28.816Z,102820.50
2019-05-15T06:53:58.521Z,102824.56
2019-05-15T06:56:28.348Z,102822.36
2019-05-15T06:58:58.279Z,102824.95
2019-05-15T07:01:29.463Z,102824.08
2019-05-15T07:03:59.177Z,102827.77
2019-05-15T07:06:28.826Z,102827.77
2019-05-15T07:08:58.782Z,102830.95
2019-05-15T07:11:28.357Z,102832.77
2019-05-15T07:13:58.167Z,102830.55
2019-05-15T07:16:28.496Z,102830.16
2019-05-15T07:18:58.930Z,102835.19
2019-05-15T07:21:28.668Z,102837.89
2019-05-15T07:23:58.631Z,102831.62
2019-05-15T07:26:29.008Z,102830.74
2019-05-15T07:28:59.610Z,102837.89
2019-05-15T07:31:29.404Z,102841.95
2019-05-15T07:33:59.830Z,102833.84
2019-05-15T07:36:29.426Z,102837.42
2019-05-15T07:38:58.994Z,102832.49
2019-05-15T07:41:28.590Z,102838.27
2019-05-15T07:43:58.723Z,102834.13
2019-05-15T07:46:28.892Z,102836.35
2019-05-15T07:48:58.544Z,102830.47
2019-05-15T07:51:28.706Z,102828.61
2019-05-15T07:53:58.592Z,102825.43
2019-05-15T07:56:28.938Z,102832.11
2019-05-15T07:58:58.787Z,102825.72
2019-05-15T08:01:29.121Z,102827.94
2019-05-15T08:04:20.470Z,102824.28
2019-05-15T08:06:30.018Z,102826.87
2019-05-15T08:08:59.558Z,102820.98
2019-05-15T08:11:28.954Z,102823.58
2019-05-15T08:13:58.452Z,102818.09
2019-05-15T08:16:28.705Z,102826.56
2019-05-15T08:18:58.307Z,102820.80
2019-05-15T08:21:29.249Z,102831.09
2019-05-15T08:23:59.141Z,102823.97
2019-05-15T08:26:28.691Z,102830.25
2019-05-15T08:28:58.223Z,102824.34
2019-05-15T08:31:28.813Z,102825.80
2019-05-15T08:34:12.337Z,102828.91
2019-05-15T08:36:31.337Z,102827.91
2019-05-15T08:39:01.023Z,102827.55
2019-05-15T08:41:30.456Z,102824.34
2019-05-15T08:43:59.947Z,102821.63
2019-05-15T08:46:29.551Z,102828.79
2019-05-15T08:48:58.992Z,102819.33
2019-05-15T08:51:28.585Z,102826.20
2019-05-15T08:53:58.104Z,102826.09
2019-05-15T08:56:28.941Z,102819.92
2019-05-15T08:58:58.651Z,102823.97
2019-05-15T09:01:28.775Z,102819.53
2019-05-15T09:03:58.387Z,102827.16
2019-05-15T09:06:29.091Z,102816.82
2019-05-15T09:08:58.881Z,102817.30
2019-05-15T09:11:28.501Z,102814.59
2019-05-15T09:13:59.522Z,102815.11
2019-05-15T09:16:29.002Z,102812.01
2019-05-15T09:18:59.186Z,102810.66
2019-05-15T09:21:29.062Z,102814.23
2019-05-15T09:23:59.089Z,102813.48
2019-05-15T09:26:28.724Z,102807.67
2019-05-15T09:28:58.595Z,102809.02
2019-05-15T09:31:28.577Z,102808.15
2019-05-15T09:33:58.678Z,102802.86
2019-05-15T09:36:28.907Z,102799.68
2019-05-15T09:38:58.676Z,102805.56
2019-05-15T09:41:28.690Z,102805.17
2019-05-15T09:43:58.562Z,102799.87
2019-05-15T09:46:29.162Z,102797.25
2019-05-15T09:48:59.504Z,102798.24
2019-05-15T09:51:29.183Z,102798.32
2019-05-15T09:53:59.624Z,102803.36
2019-05-15T09:56:29.242Z,102791.28
2019-05-15T09:58:58.741Z,102791.40
2019-05-15T10:01:28.564Z,102788.30
2019-05-15T10:03:58.208Z,102785.71
2019-05-15T10:06:28.715Z,102787.54
2019-05-15T10:08:58.361Z,102791.59
2019-05-15T10:11:28.889Z,102782.25
2019-05-15T10:13:58.692Z,102785.03
2019-05-15T10:16:28.200Z,102785.50
2019-05-15T10:18:58.296Z,102785.14
2019-05-15T10:21:32.204Z,102785.22
2019-05-15T10:23:59.297Z,102785.81
2019-05-15T10:26:29.043Z,102778.19
2019-05-15T10:28:58.559Z,102781.00
2019-05-15T10:31:28.410Z,102777.03
2019-05-15T10:33:58.435Z,102773.09
2019-05-15T10:36:28.146Z,102768.64
2019-05-15T10:38:59.281Z,102775.91
2019-05-15T10:41:28.867Z,102771.94
2019-05-15T10:44:00.389Z,102773.76
2019-05-15T10:46:29.573Z,102772.52
2019-05-15T10:48:58.999Z,102769.42
2019-05-15T10:51:28.774Z,102773.59
2019-05-15T10:53:58.228Z,102772.31
2019-05-15T10:56:29.187Z,102771.08
2019-05-15T10:58:59.079Z,102767.50
2019-05-15T11:01:28.619Z,102763.09
2019-05-15T11:03:58.895Z,102757.41
2019-05-15T11:06:28.948Z,102754.30
2019-05-15T11:08:58.574Z,102755.77
2019-05-15T11:11:28.144Z,102757.12
2019-05-15T11:14:00.273Z,102762.59
2019-05-15T11:16:28.868Z,102752.78
2019-05-15T11:18:58.584Z,102751.03
2019-05-15T11:21:28.168Z,102748.81
2019-05-15T11:23:59.105Z,102741.66
2019-05-15T11:26:33.151Z,102743.02
2019-05-15T11:28:59.876Z,102738.59
2019-05-15T11:31:29.517Z,102734.15
2019-05-15T11:33:58.959Z,102738.20
2019-05-15T11:36:28.944Z,102744.59
2019-05-15T11:38:58.494Z,102731.61
2019-05-15T11:41:29.524Z,102734.31
2019-05-15T11:43:59.205Z,102732.59
2019-05-15T11:46:29.214Z,102731.24
2019-05-15T11:48:59.050Z,102735.88
2019-05-15T11:51:29.144Z,102723.73
2019-05-15T11:53:58.999Z,102729.61
2019-05-15T11:56:29.546Z,102734.13
2019-05-15T11:58:59.363Z,102727.86
2019-05-15T12:01:29.002Z,102727.50
2019-05-15T12:03:58.992Z,102727.58
2019-05-15T12:06:29.264Z,102726.70
2019-05-15T12:08:59.475Z,102730.75
2019-05-15T12:11:36.562Z,102733.09
2019-05-15T12:14:00.313Z,102734.91
2019-05-15T12:16:29.871Z,102728.75
2019-05-15T12:19:08.918Z,102725.17
2019-05-15T12:21:30.552Z,102726.13
2019-05-15T12:24:00.056Z,102727.95
2019-05-15T12:26:29.669Z,102727.59
2019-05-15T12:28:59.274Z,102724.97
2019-05-15T12:31:28.703Z,102718.81
2019-05-15T12:33:58.648Z,102724.20
2019-05-15T12:36:50.039Z,102724.68
2019-05-15T12:39:08.699Z,102724.68
2019-05-15T13:01:41.232Z,102704.56
2019-05-15T13:04:10.672Z,102702.34
2019-05-15T13:06:49.412Z,102700.59
2019-05-15T13:09:13.818Z,102704.28
2019-05-15T13:11:43.329Z,102695.39
2019-05-15T13:14:13.019Z,102701.84
2019-05-15T13:16:42.484Z,102702.43
2019-05-15T13:19:12.061Z,102702.06
2019-05-15T13:21:41.633Z,102698.57
2019-05-15T13:24:11.155Z,102695.11
2019-05-15T13:26:40.634Z,102694.82
2019-05-15T13:29:10.149Z,102696.28
2019-05-15T13:31:39.845Z,102697.70
2019-05-15T13:34:09.248Z,102695.98
2019-05-15T13:36:39.369Z,102691.66
2019-05-15T13:39:09.032Z,102693.48
2019-05-15T13:41:38.727Z,102695.89
2019-05-15T13:44:09.016Z,102691.92
2019-05-15T13:46:38.548Z,102700.59
2019-05-15T13:49:08.455Z,102694.44
2019-05-15T13:51:38.550Z,102692.32
2019-05-15T13:54:08.723Z,102690.17
2019-05-15T13:56:38.339Z,102689.41
2019-05-15T13:59:08.123Z,102686.81
2019-05-15T14:01:39.341Z,102688.72
2019-05-15T14:04:08.973Z,102690.14
2019-05-15T14:06:38.467Z,102690.33
2019-05-15T14:09:09.153Z,102691.78
2019-05-15T14:11:39.111Z,102693.60
2019-05-15T14:14:08.777Z,102690.51
2019-05-15T14:16:38.563Z,102691.09
2019-05-15T14:19:08.449Z,102691.20
2019-05-15T14:21:38.137Z,102690.43
2019-05-15T14:24:09.039Z,102695.90
2019-05-15T14:26:38.766Z,102689.73
2019-05-15T14:29:09.045Z,102687.99
2019-05-15T14:31:39.541Z,102694.84
2019-05-15T14:34:09.349Z,102688.57
2019-05-15T14:36:38.924Z,102685.98
2019-05-15T14:39:08.869Z,102688.75
2019-05-15T14:41:38.416Z,102680.77
2019-05-15T14:44:16.877Z,102682.20
2019-05-15T14:46:39.250Z,102681.36
2019-05-15T14:49:09.115Z,102678.26
2019-05-15T14:51:39.273Z,102685.11
2019-05-15T14:54:09.205Z,102679.79
2019-05-15T14:56:38.791Z,102672.28
2019-05-15T14:59:09.409Z,102677.67
2019-05-15T15:01:39.014Z,102677.74
2019-05-15T15:04:08.983Z,102679.09
2019-05-15T15:06:38.846Z,102675.63
2019-05-15T15:09:08.623Z,102671.11
2019-05-15T15:11:38.669Z,102672.06
2019-05-15T15:14:08.780Z,102676.61
2019-05-15T15:16:38.625Z,102679.85
2019-05-15T15:19:08.208Z,102683.05
2019-05-15T15:21:38.434Z,102668.70
2019-05-15T15:24:08.432Z,102679.56
2019-05-15T15:26:39.112Z,102676.49
2019-05-15T15:29:08.982Z,102672.92
2019-05-15T15:31:38.981Z,102676.20
2019-05-15T15:34:08.824Z,102670.05
2019-05-15T15:36:38.351Z,102673.20
2019-05-15T15:39:08.411Z,102672.91
2019-05-15T15:41:39.033Z,102670.69
2019-05-15T15:44:08.949Z,102672.98
2019-05-15T15:46:39.570Z,102672.98
2019-05-15T15:49:09.520Z,102677.50
2019-05-15T15:51:39.249Z,102669.52
2019-05-15T15:54:08.780Z,102672.69
2019-05-15T15:56:39.282Z,102676.27
2019-05-15T15:59:09.146Z,102682.23
2019-05-15T16:01:39.122Z,102680.00
2019-05-15T16:04:08.861Z,102680.87
2019-05-15T16:06:38.909Z,102682.30
2019-05-15T16:09:09.090Z,102680.11
2019-05-15T16:11:38.794Z,102682.41
2019-05-15T16:14:09.175Z,102685.57
2019-05-15T16:16:38.834Z,102684.33
2019-05-15T16:19:08.348Z,102678.06
2019-05-15T16:21:39.356Z,102677.77
2019-05-15T16:24:17.249Z,102680.47
2019-05-15T16:26:40.346Z,102676.59
2019-05-15T16:29:09.872Z,102676.20
2019-05-15T16:31:39.480Z,102681.58
2019-05-15T16:34:09.051Z,102678.96
2019-05-15T16:36:38.712Z,102674.15
2019-05-15T16:39:11.621Z,102674.22
2019-05-15T16:41:39.816Z,102676.08
2019-05-15T16:44:09.278Z,102670.76
2019-05-15T16:46:39.310Z,102673.92
2019-05-15T16:49:09.000Z,102666.42
2019-05-15T16:51:38.505Z,102671.41
2019-05-15T16:54:08.833Z,102668.34
2019-05-15T16:56:40.097Z,102670.16
2019-05-15T16:59:09.790Z,102665.83
2019-05-15T17:01:39.605Z,102665.42
2019-05-15T17:04:09.039Z,102665.52
2019-05-15T17:06:38.853Z,102670.51
2019-05-15T17:09:20.814Z,102671.48
2019-05-15T17:11:40.529Z,102673.30
2019-05-15T17:14:10.006Z,102679.63
2019-05-15T17:16:39.911Z,102682.33
2019-05-15T17:19:09.354Z,102679.16
2019-05-15T17:21:38.869Z,102679.56
2019-05-15T17:24:10.008Z,102674.18
2019-05-15T17:26:40.403Z,102673.70
2019-05-15T17:29:10.408Z,102677.23
2019-05-15T17:31:40.171Z,102673.20
2019-05-15T17:34:09.770Z,102672.36
2019-05-15T17:36:40.309Z,102680.81
2019-05-15T17:39:09.803Z,102678.11
2019-05-15T17:41:39.393Z,102661.94
2019-05-15T17:44:09.074Z,102673.70
2019-05-15T17:46:39.054Z,102677.23
2019-05-15T17:49:15.268Z,102678.11
2019-05-15T17:51:39.973Z,102685.32
2019-05-15T17:54:09.468Z,102682.26
2019-05-15T17:56:39.428Z,102685.83
2019-05-15T17:59:09.117Z,102684.48
2019-05-15T18:01:38.993Z,102689.06
2019-05-15T18:04:08.679Z,102690.03
2019-05-15T18:06:39.893Z,102688.29
2019-05-15T18:09:10.121Z,102684.35
2019-05-15T18:11:39.580Z,102682.60
2019-05-15T18:14:09.137Z,102689.44
2019-05-15T18:16:38.578Z,102691.33
2019-05-15T18:19:08.413Z,102692.30
2019-05-15T18:21:38.565Z,102694.22
2019-05-15T18:24:09.244Z,102699.20
2019-05-15T18:26:38.987Z,102693.05
2019-05-15T18:29:09.066Z,102698.50
2019-05-15T18:31:38.692Z,102701.29
2019-05-15T18:34:08.447Z,102701.39
2019-05-15T18:36:39.260Z,102701.06
2019-05-15T18:39:09.150Z,102703.38
2019-05-15T18:41:38.657Z,102708.77
2019-05-15T18:44:08.210Z,102707.02
2019-05-15T18:46:38.168Z,102710.68
2019-05-15T18:49:07.927Z,102706.14
2019-05-15T18:51:38.541Z,102712.50
2019-05-15T18:54:08.546Z,102717.00
2019-05-15T18:56:38.732Z,102710.68
2019-05-15T18:59:08.629Z,102715.25
2019-05-15T19:01:39.316Z,102714.41
2019-05-15T19:04:09.153Z,102710.91
2019-05-15T19:06:38.655Z,102717.27
2019-05-15T19:09:08.764Z,102723.70
2019-05-15T19:11:38.537Z,102721.01
2019-05-15T19:14:08.435Z,102721.58
2019-05-15T19:16:38.674Z,102714.45
2019-05-15T19:19:08.589Z,102719.42
2019-05-15T19:21:38.292Z,102714.61
2019-05-15T19:24:07.867Z,102715.55
2019-05-15T19:26:37.389Z,102722.38
2019-05-15T19:29:08.265Z,102727.77
2019-05-15T19:31:39.168Z,102731.02
2019-05-15T19:34:09.009Z,102738.69
2019-05-15T19:36:38.508Z,102740.51
2019-05-15T19:39:08.213Z,102731.19
2019-05-15T19:41:38.261Z,102731.28
2019-05-15T19:44:08.787Z,102736.73
2019-05-15T19:46:38.755Z,102739.52
2019-05-15T19:49:08.758Z,102741.34
2019-05-15T19:51:38.519Z,102745.84
2019-05-15T19:54:09.222Z,102746.75
2019-05-15T19:56:39.034Z,102755.27
2019-05-15T19:59:08.937Z,102746.75
2019-05-15T20:01:38.582Z,102752.63
2019-05-15T20:04:08.156Z,102752.13
2019-05-15T20:06:38.680Z,102749.13
2019-05-15T20:09:08.447Z,102753.58
2019-05-15T20:11:38.510Z,102747.79
2019-05-15T20:14:08.081Z,102749.13
2019-05-15T20:16:38.897Z,102746.44
2019-05-15T20:19:08.821Z,102763.56
2019-05-15T20:21:38.542Z,102768.94
2019-05-15T20:24:11.893Z,102767.12
2019-05-15T20:26:41.609Z,102765.78
2019-05-15T20:29:11.239Z,102773.85
2019-05-15T20:31:40.770Z,102771.53
2019-05-15T20:34:10.230Z,102773.45
2019-05-15T20:36:40.194Z,102772.00
2019-05-15T20:39:09.680Z,102772.87
2019-05-15T20:41:39.175Z,102773.35
2019-05-15T20:44:08.984Z,102771.53
2019-05-15T20:46:39.285Z,102772.10
2019-05-15T20:49:08.774Z,102775.27
2019-05-15T20:51:38.967Z,102770.45
2019-05-15T20:54:08.734Z,102769.20
2019-05-15T20:56:38.620Z,102768.33
2019-05-15T20:59:08.937Z,102765.33
2019-05-15T21:01:38.584Z,102764.05
2019-05-15T21:04:19.252Z,102766.83
2019-05-15T21:06:39.418Z,102767.39
2019-05-15T21:09:09.344Z,102766.58
2019-05-15T21:11:39.740Z,102770.71
2019-05-15T21:14:09.361Z,102769.06
2019-05-15T21:16:38.838Z,102774.53
2019-05-15T21:19:08.656Z,102775.94
2019-05-15T21:21:38.731Z,102780.95
2019-05-15T21:24:10.271Z,102776.56
2019-05-15T21:26:39.572Z,102782.14
2019-05-15T21:29:09.118Z,102781.73
2019-05-15T21:31:39.976Z,102788.55
2019-05-15T21:34:09.694Z,102774.38
2019-05-15T21:36:39.555Z,102786.58
2019-05-15T21:39:09.297Z,102787.52
2019-05-15T21:41:39.289Z,102785.39
2019-05-15T21:44:08.785Z,102789.02
2019-05-15T21:46:38.337Z,102784.57
2019-05-15T21:49:08.755Z,102786.88
2019-05-15T21:51:38.603Z,102792.27
2019-05-15T21:54:09.946Z,102792.27
2019-05-15T21:56:39.727Z,102788.70
2019-05-15T21:59:09.213Z,102776.59
2019-05-15T22:01:39.727Z,102770.44
2019-05-15T22:04:09.445Z,102767.81
2019-05-15T22:06:38.876Z,102767.44
2019-05-15T22:09:11.259Z,102771.47
2019-05-15T22:11:40.883Z,102771.53
2019-05-15T22:14:10.425Z,102774.72
2019-05-15T22:16:39.892Z,102768.94
2019-05-15T22:19:10.707Z,102771.72
2019-05-15T22:21:40.707Z,102776.13
2019-05-15T22:24:10.508Z,102774.78
2019-05-15T22:26:40.035Z,102778.44
2019-05-15T22:29:09.727Z,102772.56
2019-05-15T22:31:42.329Z,102770.84
2019-05-15T22:34:11.751Z,102771.31
2019-05-15T22:36:41.424Z,102771.78
2019-05-15T22:39:11.054Z,102766.87
2019-05-15T22:41:40.562Z,102765.94
2019-05-15T22:44:10.986Z,102773.13
2019-05-15T22:46:40.601Z,102771.78
2019-05-15T22:49:10.122Z,102773.13
2019-05-15T22:51:39.654Z,102770.44
2019-05-15T22:54:09.213Z,102765.53
2019-05-15T22:56:38.817Z,102762.78
2019-05-15T22:59:08.654Z,102764.12
2019-05-15T23:01:38.990Z,102766.25
2019-05-15T23:04:09.079Z,102766.25
2019-05-15T23:06:39.002Z,102760.88
2019-05-15T23:09:08.616Z,102755.02
2019-05-15T23:11:39.374Z,102758.97
2019-05-15T23:14:12.143Z,102754.05
2019-05-15T23:16:42.026Z,102753.99
2019-05-15T23:19:11.625Z,102759.38
2019-05-15T23:21:41.144Z,102756.59
2019-05-15T23:24:10.740Z,102762.44
2019-05-15T23:26:40.266Z,102757.47
2019-05-15T23:29:09.794Z,102762.37
2019-05-15T23:31:39.253Z,102759.22
2019-05-15T23:34:08.783Z,102760.16
2019-05-15T23:36:38.270Z,102760.56
2019-05-15T23:39:08.370Z,102757.88
2019-05-15T23:41:37.808Z,102760.56
2019-05-15T23:44:08.247Z,102754.21
2019-05-15T23:46:38.285Z,102759.59
2019-05-15T23:49:08.290Z,102758.25
2019-05-15T23:51:38.538Z,102757.30
2019-05-15T23:54:08.443Z,102755.50
2019-05-15T23:56:38.734Z,102758.19
2019-05-15T23:59:08.616Z,102764.41
